createdAt,value
2022-12-16T00:01:16.378Z,46.00
2022-12-16T00:03:47.885Z,46.10
2022-12-16T00:06:15.059Z,46.00
2022-12-16T00:08:41.957Z,46.10
2022-12-16T00:11:09.606Z,46.10
2022-12-16T00:13:38.055Z,46.10
2022-12-16T00:16:14.358Z,46.10
2022-12-16T00:18:41.772Z,46.10
2022-12-16T00:21:09.081Z,46.00
2022-12-16T00:23:36.703Z,46.00
2022-12-16T00:26:04.006Z,46.00
2022-12-16T00:28:31.184Z,46.00
2022-12-16T00:30:58.210Z,46.00
2022-12-16T00:33:27.497Z,46.00
2022-12-16T00:35:55.568Z,46.10
2022-12-16T00:38:24.313Z,46.10
2022-12-16T00:40:52.136Z,46.10
2022-12-16T00:43:20.356Z,46.00
2022-12-16T00:45:47.998Z,46.00
2022-12-16T00:48:15.882Z,46.00
2022-12-16T00:50:49.528Z,46.00
2022-12-16T00:53:19.976Z,46.10
2022-12-16T00:55:46.991Z,46.50
2022-12-16T00:58:14.329Z,46.00
2022-12-16T01:00:42.391Z,46.00
2022-12-16T01:03:09.634Z,46.00
2022-12-16T01:05:38.963Z,46.00
2022-12-16T01:08:06.015Z,46.10
2022-12-16T01:10:33.024Z,46.00
2022-12-16T01:12:59.817Z,46.00
2022-12-16T01:15:27.395Z,46.00
2022-12-16T01:17:54.071Z,46.50
2022-12-16T01:20:22.623Z,46.00
2022-12-16T01:22:49.547Z,46.00
2022-12-16T01:25:17.783Z,46.50
2022-12-16T01:27:44.567Z,46.00
2022-12-16T01:30:11.900Z,45.90
2022-12-16T01:32:38.634Z,45.90
2022-12-16T01:35:18.056Z,45.90
2022-12-16T01:37:50.597Z,46.00
2022-12-16T01:40:22.311Z,45.90
2022-12-16T01:42:49.351Z,45.90
2022-12-16T01:45:25.525Z,45.90
2022-12-16T01:47:54.927Z,45.90
2022-12-16T01:50:25.157Z,45.90
2022-12-16T01:52:56.362Z,45.80
2022-12-16T01:55:34.936Z,45.90
2022-12-16T01:58:13.674Z,45.90
2022-12-16T02:00:41.274Z,46.00
2022-12-16T02:03:09.321Z,46.00
2022-12-16T02:05:40.386Z,46.00
2022-12-16T02:08:10.076Z,46.00
2022-12-16T02:14:16.637Z,46.00
2022-12-16T02:16:59.046Z,46.00
2022-12-16T02:19:47.274Z,45.90
2022-12-16T02:22:51.888Z,45.90
2022-12-16T02:25:49.991Z,46.00
2022-12-16T02:29:15.042Z,45.90
2022-12-16T02:32:06.062Z,45.90
2022-12-16T02:34:59.130Z,45.90
2022-12-16T02:37:48.616Z,45.80
2022-12-16T02:40:26.091Z,45.90
2022-12-16T02:43:07.233Z,45.90
2022-12-16T02:45:49.364Z,45.90
2022-12-16T02:48:16.922Z,46.00
2022-12-16T02:50:52.234Z,46.00
2022-12-16T02:53:20.833Z,46.00
2022-12-16T02:56:18.935Z,46.10
2022-12-16T02:58:45.566Z,46.10
2022-12-16T03:04:31.035Z,46.20
2022-12-16T03:07:00.515Z,46.20
2022-12-16T03:09:32.166Z,46.20
2022-12-16T03:12:02.996Z,46.20
2022-12-16T03:14:32.999Z,46.20
2022-12-16T03:17:00.712Z,46.10
2022-12-16T03:19:29.049Z,46.20
2022-12-16T03:22:13.402Z,46.10
2022-12-16T03:24:41.157Z,46.10
2022-12-16T03:27:18.769Z,46.10
2022-12-16T03:29:55.404Z,46.10
2022-12-16T03:32:30.935Z,46.20
2022-12-16T03:38:11.286Z,46.10
2022-12-16T03:40:41.091Z,46.00
2022-12-16T03:43:10.155Z,46.00
2022-12-16T03:45:40.755Z,46.00
2022-12-16T03:48:10.929Z,46.00
2022-12-16T03:53:26.359Z,46.10
2022-12-16T03:55:54.652Z,46.00
2022-12-16T03:58:21.757Z,46.00
2022-12-16T04:00:48.806Z,46.00
2022-12-16T04:03:15.782Z,46.00
2022-12-16T04:05:42.999Z,45.90
2022-12-16T04:11:12.697Z,45.90
2022-12-16T04:13:57.977Z,45.90
2022-12-16T04:16:45.899Z,45.90
2022-12-16T04:19:44.252Z,45.90
2022-12-16T04:22:38.589Z,45.90
2022-12-16T04:27:54.829Z,45.90
2022-12-16T04:30:22.288Z,45.90
2022-12-16T04:33:15.995Z,45.90
2022-12-16T04:36:01.397Z,46.00
2022-12-16T04:38:47.188Z,46.00
2022-12-16T04:44:36.453Z,46.00
2022-12-16T04:47:21.949Z,46.00
2022-12-16T04:50:07.339Z,46.00
2022-12-16T04:52:52.731Z,45.90
2022-12-16T04:55:38.257Z,45.90
2022-12-16T05:01:27.042Z,45.90
2022-12-16T05:04:13.760Z,45.90
2022-12-16T05:06:59.060Z,46.00
2022-12-16T05:09:44.820Z,45.90
2022-12-16T05:12:29.989Z,45.80
2022-12-16T05:15:15.479Z,45.80
2022-12-16T05:18:00.976Z,45.90
2022-12-16T05:20:46.772Z,45.90
2022-12-16T05:23:32.399Z,45.90
2022-12-16T05:26:17.746Z,45.90
2022-12-16T05:29:16.914Z,46.00
2022-12-16T05:35:06.688Z,46.00
2022-12-16T05:37:52.419Z,46.00
2022-12-16T05:40:37.874Z,46.00
2022-12-16T05:43:23.284Z,46.00
2022-12-16T05:46:28.671Z,46.00
2022-12-16T05:49:13.768Z,46.00
2022-12-16T05:51:59.149Z,45.90
2022-12-16T05:54:44.295Z,45.90
2022-12-16T05:57:29.881Z,45.90
2022-12-16T06:00:15.110Z,45.90
2022-12-16T06:03:01.301Z,45.90
2022-12-16T06:05:46.721Z,46.00
2022-12-16T06:08:32.097Z,46.00
2022-12-16T06:11:17.391Z,45.90
2022-12-16T06:14:02.829Z,45.90
2022-12-16T06:16:48.104Z,45.90
2022-12-16T06:19:33.657Z,45.90
2022-12-16T06:22:18.831Z,45.90
2022-12-16T06:25:03.994Z,45.90
2022-12-16T06:27:49.323Z,45.90
2022-12-16T06:30:34.978Z,45.90
2022-12-16T06:33:20.223Z,45.90
2022-12-16T06:36:22.470Z,46.00
2022-12-16T06:39:07.806Z,45.90
2022-12-16T06:41:53.597Z,45.90
2022-12-16T06:44:38.783Z,45.90
2022-12-16T06:47:24.849Z,45.90
2022-12-16T06:50:10.736Z,45.90
2022-12-16T06:52:56.335Z,45.90
2022-12-16T06:55:41.477Z,45.90
2022-12-16T06:58:27.185Z,46.00
2022-12-16T07:01:12.440Z,45.80
2022-12-16T07:03:57.910Z,45.90
2022-12-16T07:06:43.281Z,45.90
2022-12-16T07:09:29.318Z,45.80
2022-12-16T07:12:14.642Z,45.80
2022-12-16T07:15:00.737Z,45.80
2022-12-16T07:17:46.280Z,45.80
2022-12-16T07:20:31.627Z,45.80
2022-12-16T07:23:20.058Z,45.80
2022-12-16T07:26:06.078Z,45.90
2022-12-16T07:28:51.347Z,45.90
2022-12-16T07:31:36.648Z,46.00
2022-12-16T07:34:22.006Z,46.00
2022-12-16T07:37:07.297Z,46.10
2022-12-16T07:39:55.116Z,46.00
2022-12-16T07:42:41.941Z,46.10
2022-12-16T07:45:28.153Z,46.10
2022-12-16T07:48:13.884Z,46.10
2022-12-16T07:50:59.733Z,46.10
2022-12-16T07:53:45.069Z,46.20
2022-12-16T07:56:31.053Z,46.20
2022-12-16T07:59:16.391Z,46.20
2022-12-16T08:02:02.017Z,46.30
2022-12-16T08:04:47.586Z,46.20
2022-12-16T08:07:32.946Z,46.30
2022-12-16T08:10:18.169Z,46.20
2022-12-16T08:13:03.753Z,46.20
2022-12-16T08:15:48.909Z,46.20
2022-12-16T08:18:34.509Z,46.30
2022-12-16T08:21:20.108Z,46.30
2022-12-16T08:24:05.679Z,46.30
2022-12-16T08:26:51.004Z,46.30
2022-12-16T08:29:44.972Z,46.30
2022-12-16T08:32:34.646Z,46.30
2022-12-16T08:35:20.741Z,46.30
2022-12-16T08:41:14.160Z,46.30
2022-12-16T08:43:59.491Z,46.30
2022-12-16T08:46:44.752Z,46.30
2022-12-16T08:49:29.921Z,46.30
2022-12-16T08:52:15.171Z,46.40
2022-12-16T08:55:00.930Z,46.40
2022-12-16T08:57:46.109Z,46.50
2022-12-16T09:00:32.202Z,46.50
2022-12-16T09:03:18.536Z,46.50
2022-12-16T09:06:04.567Z,46.50
2022-12-16T09:08:50.296Z,46.50
2022-12-16T09:11:35.780Z,46.50
2022-12-16T09:14:21.243Z,46.50
2022-12-16T09:17:07.096Z,46.60
2022-12-16T09:19:52.764Z,46.60
2022-12-16T09:22:40.479Z,46.80
2022-12-16T09:25:26.039Z,47.00
2022-12-16T09:28:11.188Z,47.10
2022-12-16T09:30:56.731Z,47.00
2022-12-16T09:33:41.910Z,46.90
2022-12-16T09:36:27.472Z,46.80
2022-12-16T09:39:12.641Z,46.70
2022-12-16T09:42:12.179Z,46.70
2022-12-16T09:45:18.986Z,46.80
2022-12-16T09:48:07.423Z,46.80
2022-12-16T09:50:56.674Z,46.80
2022-12-16T09:53:42.948Z,46.80
2022-12-16T09:56:46.776Z,46.80
2022-12-16T09:59:38.295Z,46.90
2022-12-16T10:02:31.128Z,47.00
2022-12-16T10:05:17.525Z,47.10
2022-12-16T10:08:19.112Z,47.10
2022-12-16T10:11:16.822Z,47.20
2022-12-16T10:14:17.684Z,47.30
2022-12-16T10:17:40.741Z,47.40
2022-12-16T10:20:50.153Z,47.60
2022-12-16T10:23:44.757Z,48.10
2022-12-16T10:26:50.327Z,49.10
2022-12-16T10:29:43.713Z,50.70
2022-12-16T10:32:47.691Z,52.20
2022-12-16T10:36:01.453Z,53.10
2022-12-16T10:39:08.476Z,53.50
2022-12-16T10:41:56.735Z,53.60
2022-12-16T10:44:54.363Z,53.00
2022-12-16T10:47:41.241Z,51.90
2022-12-16T10:50:32.080Z,51.50
2022-12-16T10:53:23.842Z,50.40
2022-12-16T10:56:27.627Z,49.90
2022-12-16T10:59:17.291Z,48.60
2022-12-16T11:02:17.651Z,48.80
2022-12-16T11:05:04.043Z,47.50
2022-12-16T11:08:03.399Z,47.90
2022-12-16T11:10:54.294Z,47.10
2022-12-16T11:13:44.836Z,46.40
2022-12-16T11:16:33.957Z,46.00
2022-12-16T11:19:20.021Z,45.40
2022-12-16T11:22:06.028Z,45.10
2022-12-16T11:24:51.515Z,44.50
2022-12-16T11:27:39.982Z,44.10
2022-12-16T11:30:41.705Z,43.50
2022-12-16T11:33:39.485Z,42.60
2022-12-16T11:36:41.711Z,43.00
2022-12-16T11:39:34.167Z,42.60
2022-12-16T11:42:19.959Z,42.10
2022-12-16T11:45:09.930Z,42.50
2022-12-16T11:48:16.580Z,42.10
2022-12-16T11:51:10.927Z,41.20
2022-12-16T11:53:56.285Z,41.40
2022-12-16T11:56:49.246Z,41.10
2022-12-16T11:59:46.547Z,40.40
2022-12-16T12:02:39.331Z,40.30
2022-12-16T12:05:25.124Z,40.80
2022-12-16T12:08:27.664Z,41.10
2022-12-16T12:11:29.557Z,40.40
2022-12-16T12:14:22.850Z,40.70
2022-12-16T12:17:33.479Z,40.30
2022-12-16T12:20:50.217Z,39.70
2022-12-16T12:23:54.139Z,39.20
2022-12-16T12:26:50.075Z,40.00
2022-12-16T12:29:54.297Z,39.80
2022-12-16T12:32:56.120Z,40.20
2022-12-16T12:35:41.567Z,39.50
2022-12-16T12:38:48.052Z,40.00
2022-12-16T12:41:47.133Z,39.10
2022-12-16T12:44:49.706Z,38.90
2022-12-16T12:47:37.877Z,39.10
2022-12-16T12:50:44.778Z,39.50
2022-12-16T12:53:45.280Z,38.70
2022-12-16T12:56:55.907Z,39.00
2022-12-16T12:59:48.256Z,38.80
2022-12-16T13:02:41.859Z,39.10
2022-12-16T13:05:32.354Z,38.90
2022-12-16T13:08:56.502Z,39.10
2022-12-16T13:11:43.031Z,38.70
2022-12-16T13:14:50.300Z,39.20
2022-12-16T13:17:38.219Z,38.30
2022-12-16T13:20:45.466Z,38.80
2022-12-16T13:23:46.212Z,38.50
2022-12-16T13:26:35.117Z,37.90
2022-12-16T13:29:49.285Z,38.30
2022-12-16T13:32:42.247Z,38.00
2022-12-16T13:35:28.011Z,38.50
2022-12-16T13:38:16.292Z,38.60
2022-12-16T13:41:15.930Z,38.70
2022-12-16T13:44:18.190Z,38.40
2022-12-16T13:47:05.610Z,38.30
2022-12-16T13:50:02.333Z,38.60
2022-12-16T13:53:05.556Z,38.30
2022-12-16T13:56:00.032Z,38.20
2022-12-16T13:59:08.906Z,38.00
2022-12-16T14:02:06.998Z,37.80
2022-12-16T14:04:55.678Z,37.70
2022-12-16T14:07:44.018Z,37.80
2022-12-16T14:11:00.207Z,37.60
2022-12-16T14:14:01.840Z,37.70
2022-12-16T14:16:58.604Z,37.90
2022-12-16T14:19:45.561Z,38.20
2022-12-16T14:22:49.664Z,38.40
2022-12-16T14:25:41.334Z,38.60
2022-12-16T14:28:42.071Z,38.80
2022-12-16T14:31:53.066Z,39.00
2022-12-16T14:34:50.607Z,39.20
2022-12-16T14:38:05.611Z,39.30
2022-12-16T14:40:52.491Z,39.50
2022-12-16T14:43:43.911Z,39.50
2022-12-16T14:46:48.642Z,39.70
2022-12-16T14:49:44.001Z,40.00
2022-12-16T14:52:41.049Z,40.20
2022-12-16T14:55:38.493Z,40.40
2022-12-16T14:58:37.130Z,40.60
2022-12-16T15:01:41.177Z,40.80
2022-12-16T15:04:35.073Z,40.90
2022-12-16T15:07:30.803Z,40.90
2022-12-16T15:10:18.307Z,41.00
2022-12-16T15:13:05.534Z,41.10
2022-12-16T15:16:07.986Z,41.10
2022-12-16T15:19:02.895Z,41.40
2022-12-16T15:21:51.128Z,41.40
2022-12-16T15:24:39.777Z,41.50
2022-12-16T15:27:40.639Z,41.60
2022-12-16T15:31:18.735Z,41.70
2022-12-16T15:34:04.139Z,41.90
2022-12-16T15:36:52.602Z,41.70
2022-12-16T15:39:39.563Z,41.80
2022-12-16T15:42:38.181Z,41.90
2022-12-16T15:45:24.466Z,42.10
2022-12-16T15:48:10.012Z,42.10
2022-12-16T15:50:55.332Z,42.10
2022-12-16T15:53:47.295Z,42.10
2022-12-16T15:56:38.691Z,42.20
2022-12-16T15:59:40.117Z,42.20
2022-12-16T16:02:35.506Z,42.80
2022-12-16T16:05:21.336Z,42.40
2022-12-16T16:08:06.870Z,42.40
2022-12-16T16:10:52.297Z,42.60
2022-12-16T16:13:37.812Z,42.60
2022-12-16T16:16:23.956Z,42.60
2022-12-16T16:19:09.358Z,42.70
2022-12-16T16:21:54.963Z,42.80
2022-12-16T16:24:40.318Z,42.70
2022-12-16T16:27:31.658Z,42.80
2022-12-16T16:30:18.415Z,42.90
2022-12-16T16:33:04.941Z,42.90
2022-12-16T16:35:51.928Z,42.90
2022-12-16T16:38:37.988Z,43.00
2022-12-16T16:41:23.321Z,43.10
2022-12-16T16:44:08.747Z,43.10
2022-12-16T16:46:57.673Z,43.10
2022-12-16T16:49:58.440Z,43.20
2022-12-16T16:52:45.451Z,43.20
2022-12-16T16:55:43.074Z,43.20
2022-12-16T16:58:38.875Z,43.30
2022-12-16T17:01:24.489Z,43.30
2022-12-16T17:04:10.071Z,43.30
2022-12-16T17:06:55.345Z,43.30
2022-12-16T17:09:42.241Z,43.30
2022-12-16T17:12:50.044Z,43.40
2022-12-16T17:15:48.133Z,43.50
2022-12-16T17:18:34.159Z,43.40
2022-12-16T17:21:21.333Z,43.40
2022-12-16T17:24:06.639Z,43.40
2022-12-16T17:26:52.302Z,43.50
2022-12-16T17:29:41.098Z,43.50
2022-12-16T17:32:26.983Z,43.60
2022-12-16T17:35:23.397Z,43.60
2022-12-16T17:38:10.118Z,43.60
2022-12-16T17:40:55.265Z,43.60
2022-12-16T17:43:40.881Z,43.60
2022-12-16T17:46:30.186Z,43.70
2022-12-16T17:49:16.853Z,43.70
2022-12-16T17:52:02.686Z,43.70
2022-12-16T17:54:48.157Z,43.60
2022-12-16T17:57:33.217Z,43.60
2022-12-16T18:00:18.754Z,43.70
2022-12-16T18:03:04.393Z,43.70
2022-12-16T18:05:50.078Z,43.70
2022-12-16T18:08:35.364Z,43.80
2022-12-16T18:11:20.758Z,43.80
2022-12-16T18:14:06.221Z,43.80
2022-12-16T18:16:51.652Z,43.80
2022-12-16T18:19:53.554Z,43.80
2022-12-16T18:22:39.631Z,43.80
2022-12-16T18:25:25.242Z,43.80
2022-12-16T18:28:10.831Z,43.90
2022-12-16T18:30:56.073Z,43.90
2022-12-16T18:33:43.468Z,43.90
2022-12-16T18:36:28.903Z,43.90
2022-12-16T18:39:14.275Z,44.00
2022-12-16T18:42:03.956Z,44.00
2022-12-16T18:44:49.477Z,44.00
2022-12-16T18:47:35.251Z,44.00
2022-12-16T18:50:27.391Z,44.00
2022-12-16T18:53:14.684Z,44.00
2022-12-16T18:56:00.146Z,43.90
2022-12-16T18:58:52.569Z,44.00
2022-12-16T19:01:38.852Z,44.00
2022-12-16T19:04:24.189Z,44.50
2022-12-16T19:07:09.584Z,44.00
2022-12-16T19:09:54.898Z,44.00
2022-12-16T19:12:40.406Z,44.00
2022-12-16T19:15:26.084Z,44.00
2022-12-16T19:18:11.869Z,44.10
2022-12-16T19:20:57.034Z,44.20
2022-12-16T19:23:42.476Z,44.20
2022-12-16T19:26:28.528Z,44.20
2022-12-16T19:29:13.769Z,44.10
2022-12-16T19:31:58.955Z,44.10
2022-12-16T19:34:44.509Z,44.20
2022-12-16T19:37:29.825Z,44.20
2022-12-16T19:40:15.781Z,44.30
2022-12-16T19:43:00.995Z,44.30
2022-12-16T19:45:46.577Z,44.30
2022-12-16T19:48:31.854Z,44.40
2022-12-16T19:51:21.343Z,44.50
2022-12-16T19:54:06.868Z,44.60
2022-12-16T19:56:52.727Z,44.60
2022-12-16T19:59:40.693Z,44.70
2022-12-16T20:02:29.273Z,44.80
2022-12-16T20:05:15.021Z,44.80
2022-12-16T20:08:00.294Z,45.30
2022-12-16T20:10:45.885Z,45.00
2022-12-16T20:13:32.017Z,45.00
2022-12-16T20:16:22.323Z,45.00
2022-12-16T20:19:07.438Z,45.10
2022-12-16T20:21:56.204Z,45.20
2022-12-16T20:24:56.555Z,45.10
2022-12-16T20:27:42.533Z,45.20
2022-12-16T20:30:28.841Z,45.20
2022-12-16T20:33:14.467Z,45.30
2022-12-16T20:35:59.967Z,45.30
2022-12-16T20:38:45.429Z,45.30
2022-12-16T20:41:30.900Z,45.40
2022-12-16T20:44:16.220Z,45.30
2022-12-16T20:47:01.836Z,45.40
2022-12-16T20:49:47.240Z,45.40
2022-12-16T20:52:32.744Z,45.40
2022-12-16T20:55:18.293Z,45.40
2022-12-16T20:58:03.744Z,45.40
2022-12-16T21:00:49.111Z,45.50
2022-12-16T21:03:34.458Z,45.50
2022-12-16T21:06:22.201Z,45.50
2022-12-16T21:09:07.602Z,45.50
2022-12-16T21:11:52.923Z,45.60
2022-12-16T21:14:41.561Z,45.60
2022-12-16T21:17:26.771Z,45.70
2022-12-16T21:20:11.955Z,45.70
2022-12-16T21:22:57.519Z,45.80
2022-12-16T21:25:44.834Z,45.90
2022-12-16T21:28:31.124Z,46.00
2022-12-16T21:31:17.678Z,46.10
2022-12-16T21:34:03.540Z,46.10
2022-12-16T21:36:49.080Z,46.10
2022-12-16T21:39:34.507Z,46.10
2022-12-16T21:42:19.914Z,46.20
2022-12-16T21:45:05.206Z,46.20
2022-12-16T21:47:50.447Z,46.40
2022-12-16T21:50:35.970Z,46.50
2022-12-16T21:53:21.512Z,46.60
2022-12-16T21:56:14.606Z,46.50
2022-12-16T21:59:02.946Z,46.50
2022-12-16T22:01:48.348Z,46.60
2022-12-16T22:04:34.174Z,46.70
2022-12-16T22:07:19.954Z,46.70
2022-12-16T22:10:05.247Z,46.70
2022-12-16T22:12:52.714Z,46.80
2022-12-16T22:15:41.661Z,46.70
2022-12-16T22:18:26.996Z,46.80
2022-12-16T22:21:21.076Z,46.70
2022-12-16T22:24:07.052Z,46.70
2022-12-16T22:26:52.667Z,46.70
2022-12-16T22:29:39.090Z,46.70
2022-12-16T22:32:24.698Z,46.70
2022-12-16T22:35:10.065Z,46.70
2022-12-16T22:37:56.174Z,46.80
2022-12-16T22:40:41.353Z,46.80
2022-12-16T22:43:26.917Z,46.70
2022-12-16T22:46:20.424Z,46.70
2022-12-16T22:49:07.036Z,46.80
2022-12-16T22:51:52.272Z,46.80
2022-12-16T22:54:51.884Z,46.80
2022-12-16T22:57:38.795Z,46.80
2022-12-16T23:00:25.324Z,46.70
2022-12-16T23:03:10.734Z,46.70
2022-12-16T23:05:56.212Z,46.70
2022-12-16T23:08:41.706Z,46.80
2022-12-16T23:11:50.033Z,46.70
2022-12-16T23:14:40.921Z,46.80
2022-12-16T23:17:28.919Z,46.70
2022-12-16T23:20:15.064Z,46.80
2022-12-16T23:23:00.231Z,46.70
2022-12-16T23:25:45.924Z,46.70
2022-12-16T23:28:31.383Z,46.70
2022-12-16T23:31:17.748Z,46.70
2022-12-16T23:34:03.129Z,46.60
2022-12-16T23:36:48.476Z,46.70
2022-12-16T23:39:34.459Z,46.70
2022-12-16T23:42:19.850Z,47.20
2022-12-16T23:45:05.579Z,47.00
2022-12-16T23:47:50.876Z,46.90
2022-12-16T23:50:37.489Z,46.70
2022-12-16T23:53:27.005Z,46.70
2022-12-16T23:56:18.160Z,46.80
2022-12-16T23:59:05.962Z,47.20
